sensor_id;sensor_type;location;lat;lon;timestamp;temperature;humidity
8780;DHT22;62328;51.19929245;4.42130175;2022-09-16T00:01:10;15.30;99.90
8780;DHT22;62328;51.19929245;4.42130175;2022-09-16T00:03:37;15.30;99.90
8780;DHT22;62328;51.19929245;4.42130175;2022-09-16T00:06:11;15.30;99.90
8780;DHT22;62328;51.19929245;4.42130175;2022-09-16T00:08:40;15.30;99.90
8780;DHT22;62328;51.19929245;4.42130175;2022-09-16T00:11:08;15.20;99.90
8780;DHT22;62328;51.19929245;4.42130175;2022-09-16T00:13:35;15.20;99.90
8780;DHT22;62328;51.19929245;4.42130175;2022-09-16T00:16:06;15.20;99.90
8780;DHT22;62328;51.19929245;4.42130175;2022-09-16T00:18:33;15.20;99.90
8780;DHT22;62328;51.19929245;4.42130175;2022-09-16T00:21:00;15.20;99.90
8780;DHT22;62328;51.19929245;4.42130175;2022-09-16T00:23:28;15.20;99.90
8780;DHT22;62328;51.19929245;4.42130175;2022-09-16T00:25:55;15.10;99.90
8780;DHT22;62328;51.19929245;4.42130175;2022-09-16T00:28:22;15.10;99.90
8780;DHT22;62328;51.19929245;4.42130175;2022-09-16T00:30:51;15.10;99.90
8780;DHT22;62328;51.19929245;4.42130175;2022-09-16T00:33:18;15.00;99.90
8780;DHT22;62328;51.19929245;4.42130175;2022-09-16T00:35:46;15.00;99.90
8780;DHT22;62328;51.19929245;4.42130175;2022-09-16T00:38:13;15.00;99.90
8780;DHT22;62328;51.19929245;4.42130175;2022-09-16T00:40:45;14.90;99.90
8780;DHT22;62328;51.19929245;4.42130175;2022-09-16T00:43:16;14.90;99.90
8780;DHT22;62328;51.19929245;4.42130175;2022-09-16T00:45:45;14.90;99.90
8780;DHT22;62328;51.19929245;4.42130175;2022-09-16T00:48:18;14.80;99.90
8780;DHT22;62328;51.19929245;4.42130175;2022-09-16T00:50:49;14.80;99.90
8780;DHT22;62328;51.19929245;4.42130175;2022-09-16T00:53:21;14.90;99.90
8780;DHT22;62328;51.19929245;4.42130175;2022-09-16T00:55:50;14.90;99.90
8780;DHT22;62328;51.19929245;4.42130175;2022-09-16T00:58:22;14.90;99.90
8780;DHT22;62328;51.19929245;4.42130175;2022-09-16T01:00:50;14.90;99.90
8780;DHT22;62328;51.19929245;4.42130175;2022-09-16T01:03:18;14.90;99.90
8780;DHT22;62328;51.19929245;4.42130175;2022-09-16T01:05:45;14.90;99.90
8780;DHT22;62328;51.19929245;4.42130175;2022-09-16T01:08:13;14.90;99.90
8780;DHT22;62328;51.19929245;4.42130175;2022-09-16T01:10:41;14.90;99.90
8780;DHT22;62328;51.19929245;4.42130175;2022-09-16T01:13:11;14.80;99.90
8780;DHT22;62328;51.19929245;4.42130175;2022-09-16T01:15:43;14.80;99.90
8780;DHT22;62328;51.19929245;4.42130175;2022-09-16T01:18:20;14.80;99.90
8780;DHT22;62328;51.19929245;4.42130175;2022-09-16T01:21:24;14.80;99.90
8780;DHT22;62328;51.19929245;4.42130175;2022-09-16T01:24:23;14.80;99.90
8780;DHT22;62328;51.19929245;4.42130175;2022-09-16T01:27:17;14.80;99.90
8780;DHT22;62328;51.19929245;4.42130175;2022-09-16T01:33:02;14.80;99.90
8780;DHT22;62328;51.19929245;4.42130175;2022-09-16T01:35:55;14.80;99.90
8780;DHT22;62328;51.19929245;4.42130175;2022-09-16T01:38:37;14.80;99.90
8780;DHT22;62328;51.19929245;4.42130175;2022-09-16T01:41:11;14.80;99.90
8780;DHT22;62328;51.19929245;4.42130175;2022-09-16T01:43:45;14.80;99.90
8780;DHT22;62328;51.19929245;4.42130175;2022-09-16T01:46:20;14.80;99.90
8780;DHT22;62328;51.19929245;4.42130175;2022-09-16T01:48:53;14.80;99.90
8780;DHT22;62328;51.19929245;4.42130175;2022-09-16T01:51:25;14.80;99.90
8780;DHT22;62328;51.19929245;4.42130175;2022-09-16T01:53:59;14.80;99.90
8780;DHT22;62328;51.19929245;4.42130175;2022-09-16T01:56:32;14.80;99.90
8780;DHT22;62328;51.19929245;4.42130175;2022-09-16T01:59:07;14.80;99.90
8780;DHT22;62328;51.19929245;4.42130175;2022-09-16T02:01:37;14.70;99.90
8780;DHT22;62328;51.19929245;4.42130175;2022-09-16T02:04:10;14.70;99.90
8780;DHT22;62328;51.19929245;4.42130175;2022-09-16T02:06:39;14.60;99.90
8780;DHT22;62328;51.19929245;4.42130175;2022-09-16T02:09:15;14.60;99.90
8780;DHT22;62328;51.19929245;4.42130175;2022-09-16T02:11:45;14.60;99.90
8780;DHT22;62328;51.19929245;4.42130175;2022-09-16T02:14:16;14.60;99.90
8780;DHT22;62328;51.19929245;4.42130175;2022-09-16T02:16:48;14.60;99.90
8780;DHT22;62328;51.19929245;4.42130175;2022-09-16T02:19:20;14.60;99.90
8780;DHT22;62328;51.19929245;4.42130175;2022-09-16T02:21:50;14.60;99.90
8780;DHT22;62328;51.19929245;4.42130175;2022-09-16T02:24:20;14.50;99.90
8780;DHT22;62328;51.19929245;4.42130175;2022-09-16T02:26:51;14.50;99.90
8780;DHT22;62328;51.19929245;4.42130175;2022-09-16T02:29:22;14.50;99.90
8780;DHT22;62328;51.19929245;4.42130175;2022-09-16T02:31:51;14.60;99.90
8780;DHT22;62328;51.19929245;4.42130175;2022-09-16T02:34:25;14.50;99.90
8780;DHT22;62328;51.19929245;4.42130175;2022-09-16T02:36:56;14.60;99.90
8780;DHT22;62328;51.19929245;4.42130175;2022-09-16T02:39:28;14.60;99.90
8780;DHT22;62328;51.19929245;4.42130175;2022-09-16T02:41:58;14.60;99.90
8780;DHT22;62328;51.19929245;4.42130175;2022-09-16T02:44:26;14.60;99.90
8780;DHT22;62328;51.19929245;4.42130175;2022-09-16T02:46:57;14.50;99.90
8780;DHT22;62328;51.19929245;4.42130175;2022-09-16T02:49:32;14.50;99.90
8780;DHT22;62328;51.19929245;4.42130175;2022-09-16T02:52:08;14.50;99.90
8780;DHT22;62328;51.19929245;4.42130175;2022-09-16T02:54:42;14.50;99.90
8780;DHT22;62328;51.19929245;4.42130175;2022-09-16T02:57:13;14.40;99.90
8780;DHT22;62328;51.19929245;4.42130175;2022-09-16T02:59:40;14.40;99.90
8780;DHT22;62328;51.19929245;4.42130175;2022-09-16T03:02:08;14.40;99.90
8780;DHT22;62328;51.19929245;4.42130175;2022-09-16T03:04:36;14.40;99.90
8780;DHT22;62328;51.19929245;4.42130175;2022-09-16T03:07:06;14.40;99.90
8780;DHT22;62328;51.19929245;4.42130175;2022-09-16T03:09:37;14.40;99.90
8780;DHT22;62328;51.19929245;4.42130175;2022-09-16T03:12:17;14.30;99.90
8780;DHT22;62328;51.19929245;4.42130175;2022-09-16T03:15:13;14.30;99.90
8780;DHT22;62328;51.19929245;4.42130175;2022-09-16T03:18:09;14.30;99.90
8780;DHT22;62328;51.19929245;4.42130175;2022-09-16T03:20:43;14.40;99.90
8780;DHT22;62328;51.19929245;4.42130175;2022-09-16T03:23:19;14.30;99.90
8780;DHT22;62328;51.19929245;4.42130175;2022-09-16T03:25:54;14.40;99.90
8780;DHT22;62328;51.19929245;4.42130175;2022-09-16T03:28:25;14.40;99.90
8780;DHT22;62328;51.19929245;4.42130175;2022-09-16T03:30:58;14.40;99.90
8780;DHT22;62328;51.19929245;4.42130175;2022-09-16T03:33:31;14.40;99.90
8780;DHT22;62328;51.19929245;4.42130175;2022-09-16T03:36:04;14.40;99.90
8780;DHT22;62328;51.19929245;4.42130175;2022-09-16T03:38:34;14.50;99.90
8780;DHT22;62328;51.19929245;4.42130175;2022-09-16T03:41:03;14.50;99.90
8780;DHT22;62328;51.19929245;4.42130175;2022-09-16T03:43:32;14.50;99.90
8780;DHT22;62328;51.19929245;4.42130175;2022-09-16T03:45:59;14.50;99.90
8780;DHT22;62328;51.19929245;4.42130175;2022-09-16T03:48:25;14.50;99.90
8780;DHT22;62328;51.19929245;4.42130175;2022-09-16T03:50:52;14.50;99.90
8780;DHT22;62328;51.19929245;4.42130175;2022-09-16T03:53:20;14.50;99.90
8780;DHT22;62328;51.19929245;4.42130175;2022-09-16T03:55:47;14.40;99.90
8780;DHT22;62328;51.19929245;4.42130175;2022-09-16T03:58:15;14.40;99.90
8780;DHT22;62328;51.19929245;4.42130175;2022-09-16T04:00:42;14.40;99.90
8780;DHT22;62328;51.19929245;4.42130175;2022-09-16T04:03:08;14.40;99.90
8780;DHT22;62328;51.19929245;4.42130175;2022-09-16T04:05:36;14.30;99.90
8780;DHT22;62328;51.19929245;4.42130175;2022-09-16T04:08:03;14.30;99.90
8780;DHT22;62328;51.19929245;4.42130175;2022-09-16T04:10:31;14.30;99.90
8780;DHT22;62328;51.19929245;4.42130175;2022-09-16T04:12:59;14.30;99.90
8780;DHT22;62328;51.19929245;4.42130175;2022-09-16T04:15:26;14.30;99.90
8780;DHT22;62328;51.19929245;4.42130175;2022-09-16T04:17:53;14.30;99.90
8780;DHT22;62328;51.19929245;4.42130175;2022-09-16T04:20:21;14.20;99.90
8780;DHT22;62328;51.19929245;4.42130175;2022-09-16T04:22:48;14.20;99.90
8780;DHT22;62328;51.19929245;4.42130175;2022-09-16T04:25:15;14.20;99.90
8780;DHT22;62328;51.19929245;4.42130175;2022-09-16T04:27:43;14.20;99.90
8780;DHT22;62328;51.19929245;4.42130175;2022-09-16T04:30:11;14.20;99.90
8780;DHT22;62328;51.19929245;4.42130175;2022-09-16T04:32:38;14.20;99.90
8780;DHT22;62328;51.19929245;4.42130175;2022-09-16T04:35:06;14.10;99.90
8780;DHT22;62328;51.19929245;4.42130175;2022-09-16T04:37:33;14.00;99.90
8780;DHT22;62328;51.19929245;4.42130175;2022-09-16T04:40:00;14.10;99.90
8780;DHT22;62328;51.19929245;4.42130175;2022-09-16T04:42:27;14.00;99.90
8780;DHT22;62328;51.19929245;4.42130175;2022-09-16T04:44:55;14.10;99.90
8780;DHT22;62328;51.19929245;4.42130175;2022-09-16T04:47:22;14.00;99.90
8780;DHT22;62328;51.19929245;4.42130175;2022-09-16T04:49:54;14.00;99.90
8780;DHT22;62328;51.19929245;4.42130175;2022-09-16T04:52:20;14.00;99.90
8780;DHT22;62328;51.19929245;4.42130175;2022-09-16T04:54:47;14.00;99.90
8780;DHT22;62328;51.19929245;4.42130175;2022-09-16T04:57:14;14.00;99.90
8780;DHT22;62328;51.19929245;4.42130175;2022-09-16T04:59:41;14.00;99.90
8780;DHT22;62328;51.19929245;4.42130175;2022-09-16T05:02:10;14.00;99.90
8780;DHT22;62328;51.19929245;4.42130175;2022-09-16T05:04:37;14.00;99.90
8780;DHT22;62328;51.19929245;4.42130175;2022-09-16T05:07:04;14.00;99.90
8780;DHT22;62328;51.19929245;4.42130175;2022-09-16T05:09:31;14.00;99.90
8780;DHT22;62328;51.19929245;4.42130175;2022-09-16T05:11:58;14.00;99.90
8780;DHT22;62328;51.19929245;4.42130175;2022-09-16T05:14:24;13.90;99.90
8780;DHT22;62328;51.19929245;4.42130175;2022-09-16T05:16:51;13.90;99.90
8780;DHT22;62328;51.19929245;4.42130175;2022-09-16T05:19:20;13.90;99.90
8780;DHT22;62328;51.19929245;4.42130175;2022-09-16T05:21:46;13.90;99.90
8780;DHT22;62328;51.19929245;4.42130175;2022-09-16T05:24:13;13.90;99.90
8780;DHT22;62328;51.19929245;4.42130175;2022-09-16T05:26:41;13.90;99.90
8780;DHT22;62328;51.19929245;4.42130175;2022-09-16T05:29:11;13.90;99.90
8780;DHT22;62328;51.19929245;4.42130175;2022-09-16T05:31:39;13.90;99.90
8780;DHT22;62328;51.19929245;4.42130175;2022-09-16T05:34:10;13.90;99.90
8780;DHT22;62328;51.19929245;4.42130175;2022-09-16T05:36:43;13.90;99.90
8780;DHT22;62328;51.19929245;4.42130175;2022-09-16T05:39:12;13.90;99.90
8780;DHT22;62328;51.19929245;4.42130175;2022-09-16T05:41:40;13.80;99.90
8780;DHT22;62328;51.19929245;4.42130175;2022-09-16T05:44:10;13.80;99.90
8780;DHT22;62328;51.19929245;4.42130175;2022-09-16T05:46:37;13.90;99.90
8780;DHT22;62328;51.19929245;4.42130175;2022-09-16T05:49:05;13.80;99.90
8780;DHT22;62328;51.19929245;4.42130175;2022-09-16T05:51:32;13.70;99.90
8780;DHT22;62328;51.19929245;4.42130175;2022-09-16T05:54:00;13.70;99.90
8780;DHT22;62328;51.19929245;4.42130175;2022-09-16T05:56:28;13.70;99.90
8780;DHT22;62328;51.19929245;4.42130175;2022-09-16T05:58:57;13.70;99.90
8780;DHT22;62328;51.19929245;4.42130175;2022-09-16T06:01:28;13.60;99.90
8780;DHT22;62328;51.19929245;4.42130175;2022-09-16T06:03:59;13.60;99.90
8780;DHT22;62328;51.19929245;4.42130175;2022-09-16T06:06:28;13.60;99.90
8780;DHT22;62328;51.19929245;4.42130175;2022-09-16T06:08:58;13.60;99.90
8780;DHT22;62328;51.19929245;4.42130175;2022-09-16T06:11:29;13.60;99.90
8780;DHT22;62328;51.19929245;4.42130175;2022-09-16T06:13:58;13.60;99.90
8780;DHT22;62328;51.19929245;4.42130175;2022-09-16T06:16:27;13.60;99.90
8780;DHT22;62328;51.19929245;4.42130175;2022-09-16T06:18:57;13.60;99.90
8780;DHT22;62328;51.19929245;4.42130175;2022-09-16T06:21:24;13.60;99.90
8780;DHT22;62328;51.19929245;4.42130175;2022-09-16T06:23:52;13.60;99.90
8780;DHT22;62328;51.19929245;4.42130175;2022-09-16T06:26:21;13.50;99.90
8780;DHT22;62328;51.19929245;4.42130175;2022-09-16T06:28:51;13.50;99.90
8780;DHT22;62328;51.19929245;4.42130175;2022-09-16T06:31:19;13.60;99.90
8780;DHT22;62328;51.19929245;4.42130175;2022-09-16T06:33:46;13.60;99.90
8780;DHT22;62328;51.19929245;4.42130175;2022-09-16T06:36:16;13.50;99.90
8780;DHT22;62328;51.19929245;4.42130175;2022-09-16T06:38:43;13.50;99.90
8780;DHT22;62328;51.19929245;4.42130175;2022-09-16T06:41:11;13.40;99.90
8780;DHT22;62328;51.19929245;4.42130175;2022-09-16T06:43:39;13.50;99.90
8780;DHT22;62328;51.19929245;4.42130175;2022-09-16T06:46:10;13.50;99.90
8780;DHT22;62328;51.19929245;4.42130175;2022-09-16T06:48:41;13.50;99.90
8780;DHT22;62328;51.19929245;4.42130175;2022-09-16T06:51:10;13.50;99.90
8780;DHT22;62328;51.19929245;4.42130175;2022-09-16T06:53:37;13.50;99.90
8780;DHT22;62328;51.19929245;4.42130175;2022-09-16T06:56:06;13.50;99.90
8780;DHT22;62328;51.19929245;4.42130175;2022-09-16T06:58:35;13.60;99.90
8780;DHT22;62328;51.19929245;4.42130175;2022-09-16T07:01:04;13.60;99.90
8780;DHT22;62328;51.19929245;4.42130175;2022-09-16T07:03:32;13.60;99.90
8780;DHT22;62328;51.19929245;4.42130175;2022-09-16T07:06:00;13.70;99.90
8780;DHT22;62328;51.19929245;4.42130175;2022-09-16T07:08:28;13.70;99.90
8780;DHT22;62328;51.19929245;4.42130175;2022-09-16T07:10:56;13.80;99.90
8780;DHT22;62328;51.19929245;4.42130175;2022-09-16T07:13:25;13.80;99.90
8780;DHT22;62328;51.19929245;4.42130175;2022-09-16T07:15:53;13.80;99.90
8780;DHT22;62328;51.19929245;4.42130175;2022-09-16T07:18:24;13.90;99.90
8780;DHT22;62328;51.19929245;4.42130175;2022-09-16T07:20:59;13.90;99.90
8780;DHT22;62328;51.19929245;4.42130175;2022-09-16T07:23:31;13.90;99.90
8780;DHT22;62328;51.19929245;4.42130175;2022-09-16T07:26:02;13.90;99.90
8780;DHT22;62328;51.19929245;4.42130175;2022-09-16T07:28:29;13.90;99.90
8780;DHT22;62328;51.19929245;4.42130175;2022-09-16T07:30:59;13.90;99.90
8780;DHT22;62328;51.19929245;4.42130175;2022-09-16T07:33:26;13.90;99.90
8780;DHT22;62328;51.19929245;4.42130175;2022-09-16T07:35:58;13.90;99.90
8780;DHT22;62328;51.19929245;4.42130175;2022-09-16T07:38:26;13.90;99.90
8780;DHT22;62328;51.19929245;4.42130175;2022-09-16T07:40:55;13.90;99.90
8780;DHT22;62328;51.19929245;4.42130175;2022-09-16T07:43:22;13.90;99.90
8780;DHT22;62328;51.19929245;4.42130175;2022-09-16T07:45:54;13.90;99.90
8780;DHT22;62328;51.19929245;4.42130175;2022-09-16T07:48:21;14.00;99.90
8780;DHT22;62328;51.19929245;4.42130175;2022-09-16T07:50:54;13.90;99.90
8780;DHT22;62328;51.19929245;4.42130175;2022-09-16T07:53:22;14.00;99.90
8780;DHT22;62328;51.19929245;4.42130175;2022-09-16T07:55:49;14.00;99.90
8780;DHT22;62328;51.19929245;4.42130175;2022-09-16T07:58:16;14.00;99.90
8780;DHT22;62328;51.19929245;4.42130175;2022-09-16T08:00:43;14.00;99.90
8780;DHT22;62328;51.19929245;4.42130175;2022-09-16T08:03:09;14.00;99.90
8780;DHT22;62328;51.19929245;4.42130175;2022-09-16T08:05:36;14.10;99.90
8780;DHT22;62328;51.19929245;4.42130175;2022-09-16T08:08:03;14.10;99.90
8780;DHT22;62328;51.19929245;4.42130175;2022-09-16T08:10:31;14.10;99.90
8780;DHT22;62328;51.19929245;4.42130175;2022-09-16T08:12:58;14.10;99.90
8780;DHT22;62328;51.19929245;4.42130175;2022-09-16T08:15:25;14.10;99.90
8780;DHT22;62328;51.19929245;4.42130175;2022-09-16T08:17:52;14.10;99.90
8780;DHT22;62328;51.19929245;4.42130175;2022-09-16T08:20:19;14.10;99.90
8780;DHT22;62328;51.19929245;4.42130175;2022-09-16T08:22:46;14.10;99.90
8780;DHT22;62328;51.19929245;4.42130175;2022-09-16T08:25:15;14.00;99.90
8780;DHT22;62328;51.19929245;4.42130175;2022-09-16T08:27:44;14.00;99.90
8780;DHT22;62328;51.19929245;4.42130175;2022-09-16T08:30:11;14.00;99.90
8780;DHT22;62328;51.19929245;4.42130175;2022-09-16T08:32:38;14.10;99.90
8780;DHT22;62328;51.19929245;4.42130175;2022-09-16T08:35:06;14.10;99.90
8780;DHT22;62328;51.19929245;4.42130175;2022-09-16T08:37:35;14.20;99.90
8780;DHT22;62328;51.19929245;4.42130175;2022-09-16T08:40:03;14.20;99.90
8780;DHT22;62328;51.19929245;4.42130175;2022-09-16T08:42:41;14.30;99.90
8780;DHT22;62328;51.19929245;4.42130175;2022-09-16T08:45:20;14.30;99.90
8780;DHT22;62328;51.19929245;4.42130175;2022-09-16T08:48:01;14.30;99.90
8780;DHT22;62328;51.19929245;4.42130175;2022-09-16T08:50:34;14.30;99.90
8780;DHT22;62328;51.19929245;4.42130175;2022-09-16T08:53:08;14.30;99.90
8780;DHT22;62328;51.19929245;4.42130175;2022-09-16T08:55:38;14.30;99.90
8780;DHT22;62328;51.19929245;4.42130175;2022-09-16T08:58:12;14.30;99.90
8780;DHT22;62328;51.19929245;4.42130175;2022-09-16T09:00:42;14.40;99.90
8780;DHT22;62328;51.19929245;4.42130175;2022-09-16T09:03:17;14.40;99.90
8780;DHT22;62328;51.19929245;4.42130175;2022-09-16T09:05:49;14.40;99.90
8780;DHT22;62328;51.19929245;4.42130175;2022-09-16T09:08:31;14.30;99.90
8780;DHT22;62328;51.19929245;4.42130175;2022-09-16T09:11:03;14.30;99.90
8780;DHT22;62328;51.19929245;4.42130175;2022-09-16T09:13:48;14.30;99.90
8780;DHT22;62328;51.19929245;4.42130175;2022-09-16T09:16:27;14.20;99.90
8780;DHT22;62328;51.19929245;4.42130175;2022-09-16T09:19:06;14.20;99.90
8780;DHT22;62328;51.19929245;4.42130175;2022-09-16T09:21:42;14.30;99.90
8780;DHT22;62328;51.19929245;4.42130175;2022-09-16T09:24:30;14.30;99.90
8780;DHT22;62328;51.19929245;4.42130175;2022-09-16T09:27:08;14.40;99.90
8780;DHT22;62328;51.19929245;4.42130175;2022-09-16T09:30:02;14.50;99.90
8780;DHT22;62328;51.19929245;4.42130175;2022-09-16T09:32:43;14.50;99.90
8780;DHT22;62328;51.19929245;4.42130175;2022-09-16T09:35:35;14.60;99.90
8780;DHT22;62328;51.19929245;4.42130175;2022-09-16T09:41:11;14.80;99.90
8780;DHT22;62328;51.19929245;4.42130175;2022-09-16T09:43:42;14.90;99.90
8780;DHT22;62328;51.19929245;4.42130175;2022-09-16T09:46:14;14.80;99.90
8780;DHT22;62328;51.19929245;4.42130175;2022-09-16T09:48:47;14.70;99.90
8780;DHT22;62328;51.19929245;4.42130175;2022-09-16T09:51:19;14.50;99.90
8780;DHT22;62328;51.19929245;4.42130175;2022-09-16T09:53:50;14.50;99.90
8780;DHT22;62328;51.19929245;4.42130175;2022-09-16T09:56:21;14.40;99.90
8780;DHT22;62328;51.19929245;4.42130175;2022-09-16T09:58:56;14.40;99.90
8780;DHT22;62328;51.19929245;4.42130175;2022-09-16T10:01:26;14.30;99.90
8780;DHT22;62328;51.19929245;4.42130175;2022-09-16T10:03:54;14.30;99.90
8780;DHT22;62328;51.19929245;4.42130175;2022-09-16T10:06:26;14.30;99.90
8780;DHT22;62328;51.19929245;4.42130175;2022-09-16T10:08:55;14.40;99.90
8780;DHT22;62328;51.19929245;4.42130175;2022-09-16T10:11:29;14.50;99.90
8780;DHT22;62328;51.19929245;4.42130175;2022-09-16T10:13:59;14.70;99.90
8780;DHT22;62328;51.19929245;4.42130175;2022-09-16T10:16:28;15.00;99.90
8780;DHT22;62328;51.19929245;4.42130175;2022-09-16T10:19:02;15.00;99.90
8780;DHT22;62328;51.19929245;4.42130175;2022-09-16T10:21:42;15.10;99.90
8780;DHT22;62328;51.19929245;4.42130175;2022-09-16T10:24:33;14.90;99.90
8780;DHT22;62328;51.19929245;4.42130175;2022-09-16T10:27:01;14.70;99.90
8780;DHT22;62328;51.19929245;4.42130175;2022-09-16T10:29:28;14.70;99.90
8780;DHT22;62328;51.19929245;4.42130175;2022-09-16T10:32:01;14.60;99.90
8780;DHT22;62328;51.19929245;4.42130175;2022-09-16T10:34:36;14.50;99.90
8780;DHT22;62328;51.19929245;4.42130175;2022-09-16T10:37:14;14.50;99.90
8780;DHT22;62328;51.19929245;4.42130175;2022-09-16T10:39:43;14.50;99.90
8780;DHT22;62328;51.19929245;4.42130175;2022-09-16T10:42:16;14.40;99.90
8780;DHT22;62328;51.19929245;4.42130175;2022-09-16T10:44:44;14.50;99.90
8780;DHT22;62328;51.19929245;4.42130175;2022-09-16T10:47:17;14.50;99.90
8780;DHT22;62328;51.19929245;4.42130175;2022-09-16T10:49:48;14.50;99.90
8780;DHT22;62328;51.19929245;4.42130175;2022-09-16T10:52:17;14.70;99.90
8780;DHT22;62328;51.19929245;4.42130175;2022-09-16T10:54:44;14.80;99.90
8780;DHT22;62328;51.19929245;4.42130175;2022-09-16T10:57:20;14.90;99.90
8780;DHT22;62328;51.19929245;4.42130175;2022-09-16T10:59:56;15.00;99.90
8780;DHT22;62328;51.19929245;4.42130175;2022-09-16T11:02:31;14.90;99.90
8780;DHT22;62328;51.19929245;4.42130175;2022-09-16T11:05:07;14.80;99.90
8780;DHT22;62328;51.19929245;4.42130175;2022-09-16T11:07:43;14.70;99.90
8780;DHT22;62328;51.19929245;4.42130175;2022-09-16T11:10:22;14.60;99.90
8780;DHT22;62328;51.19929245;4.42130175;2022-09-16T11:16:12;14.60;99.90
8780;DHT22;62328;51.19929245;4.42130175;2022-09-16T11:18:48;14.60;99.90
8780;DHT22;62328;51.19929245;4.42130175;2022-09-16T11:21:31;14.70;99.90
8780;DHT22;62328;51.19929245;4.42130175;2022-09-16T11:24:22;14.70;99.90
8780;DHT22;62328;51.19929245;4.42130175;2022-09-16T11:26:57;14.80;99.90
8780;DHT22;62328;51.19929245;4.42130175;2022-09-16T11:29:52;15.00;99.90
8780;DHT22;62328;51.19929245;4.42130175;2022-09-16T11:32:28;15.10;99.90
8780;DHT22;62328;51.19929245;4.42130175;2022-09-16T11:35:21;15.10;99.90
8780;DHT22;62328;51.19929245;4.42130175;2022-09-16T11:38:01;15.20;99.90
8780;DHT22;62328;51.19929245;4.42130175;2022-09-16T11:40:43;15.30;99.90
8780;DHT22;62328;51.19929245;4.42130175;2022-09-16T11:43:31;15.50;99.90
8780;DHT22;62328;51.19929245;4.42130175;2022-09-16T11:46:06;15.50;99.90
8780;DHT22;62328;51.19929245;4.42130175;2022-09-16T11:48:45;15.40;99.90
8780;DHT22;62328;51.19929245;4.42130175;2022-09-16T11:51:26;15.30;99.90
8780;DHT22;62328;51.19929245;4.42130175;2022-09-16T11:54:12;15.20;99.90
8780;DHT22;62328;51.19929245;4.42130175;2022-09-16T11:56:46;15.10;99.90
8780;DHT22;62328;51.19929245;4.42130175;2022-09-16T11:59:19;15.00;99.90
8780;DHT22;62328;51.19929245;4.42130175;2022-09-16T12:01:50;14.90;99.90
8780;DHT22;62328;51.19929245;4.42130175;2022-09-16T12:04:22;14.90;99.90
8780;DHT22;62328;51.19929245;4.42130175;2022-09-16T12:06:57;14.90;99.90
8780;DHT22;62328;51.19929245;4.42130175;2022-09-16T12:09:32;14.80;99.90
8780;DHT22;62328;51.19929245;4.42130175;2022-09-16T12:12:08;14.90;99.90
8780;DHT22;62328;51.19929245;4.42130175;2022-09-16T12:14:39;14.90;99.90
8780;DHT22;62328;51.19929245;4.42130175;2022-09-16T12:17:11;14.80;99.90
8780;DHT22;62328;51.19929245;4.42130175;2022-09-16T12:19:42;14.80;99.90
8780;DHT22;62328;51.19929245;4.42130175;2022-09-16T12:22:17;14.90;99.90
8780;DHT22;62328;51.19929245;4.42130175;2022-09-16T12:24:54;14.90;99.90
8780;DHT22;62328;51.19929245;4.42130175;2022-09-16T12:27:34;14.90;99.90
8780;DHT22;62328;51.19929245;4.42130175;2022-09-16T12:30:05;14.90;99.90
8780;DHT22;62328;51.19929245;4.42130175;2022-09-16T12:32:44;14.90;99.90
8780;DHT22;62328;51.19929245;4.42130175;2022-09-16T12:35:14;14.80;99.90
8780;DHT22;62328;51.19929245;4.42130175;2022-09-16T12:37:46;14.90;99.90
8780;DHT22;62328;51.19929245;4.42130175;2022-09-16T12:40:17;14.90;99.90
8780;DHT22;62328;51.19929245;4.42130175;2022-09-16T12:43:14;14.90;99.90
8780;DHT22;62328;51.19929245;4.42130175;2022-09-16T12:49:40;15.10;99.90
8780;DHT22;62328;51.19929245;4.42130175;2022-09-16T12:52:21;15.10;99.90
8780;DHT22;62328;51.19929245;4.42130175;2022-09-16T12:55:30;15.20;99.90
8780;DHT22;62328;51.19929245;4.42130175;2022-09-16T12:58:17;15.20;99.90
8780;DHT22;62328;51.19929245;4.42130175;2022-09-16T13:00:54;15.10;99.90
8780;DHT22;62328;51.19929245;4.42130175;2022-09-16T13:03:27;15.20;99.90
8780;DHT22;62328;51.19929245;4.42130175;2022-09-16T13:05:55;15.30;99.90
8780;DHT22;62328;51.19929245;4.42130175;2022-09-16T13:08:26;15.30;99.90
8780;DHT22;62328;51.19929245;4.42130175;2022-09-16T13:10:57;15.20;99.90
8780;DHT22;62328;51.19929245;4.42130175;2022-09-16T13:13:31;15.20;99.90
8780;DHT22;62328;51.19929245;4.42130175;2022-09-16T13:16:02;15.20;99.90
8780;DHT22;62328;51.19929245;4.42130175;2022-09-16T13:18:44;15.20;99.90
8780;DHT22;62328;51.19929245;4.42130175;2022-09-16T13:21:24;15.30;99.90
8780;DHT22;62328;51.19929245;4.42130175;2022-09-16T13:23:59;15.30;99.90
8780;DHT22;62328;51.19929245;4.42130175;2022-09-16T13:26:38;15.30;99.90
8780;DHT22;62328;51.19929245;4.42130175;2022-09-16T13:29:37;15.40;99.90
8780;DHT22;62328;51.19929245;4.42130175;2022-09-16T13:32:24;15.50;99.90
8780;DHT22;62328;51.19929245;4.42130175;2022-09-16T13:35:03;15.50;99.90
8780;DHT22;62328;51.19929245;4.42130175;2022-09-16T13:37:30;15.50;99.90
8780;DHT22;62328;51.19929245;4.42130175;2022-09-16T13:40:08;15.50;99.90
8780;DHT22;62328;51.19929245;4.42130175;2022-09-16T13:42:36;15.60;99.90
8780;DHT22;62328;51.19929245;4.42130175;2022-09-16T13:45:17;15.70;99.90
8780;DHT22;62328;51.19929245;4.42130175;2022-09-16T13:47:51;15.70;99.90
8780;DHT22;62328;51.19929245;4.42130175;2022-09-16T13:50:20;15.70;99.90
8780;DHT22;62328;51.19929245;4.42130175;2022-09-16T13:52:49;15.70;99.90
8780;DHT22;62328;51.19929245;4.42130175;2022-09-16T13:55:21;15.70;99.90
8780;DHT22;62328;51.19929245;4.42130175;2022-09-16T13:58:11;15.70;99.90
8780;DHT22;62328;51.19929245;4.42130175;2022-09-16T14:00:48;15.70;99.90
8780;DHT22;62328;51.19929245;4.42130175;2022-09-16T14:03:30;15.60;99.90
8780;DHT22;62328;51.19929245;4.42130175;2022-09-16T14:06:17;15.60;99.90
8780;DHT22;62328;51.19929245;4.42130175;2022-09-16T14:08:56;15.40;99.90
8780;DHT22;62328;51.19929245;4.42130175;2022-09-16T14:11:29;15.40;99.90
8780;DHT22;62328;51.19929245;4.42130175;2022-09-16T14:14:03;15.30;99.90
8780;DHT22;62328;51.19929245;4.42130175;2022-09-16T14:16:33;15.30;99.90